Time;durP1;ratioP1;P1;durP2;ratioP2;P2;SDS_P1;SDS_P2;PMS_P1;PMS_P2;Temp;Humidity;BMP_temperature;BMP_pressure;BME280_temperature;BME280_humidity;BME280_pressure;Samples;Min_cycle;Max_cycle;Signal;HPM_P1;HPM_P2
2021/04/12 00:01:16;;;;;;;;;;;;;;;5.06;50.32;101058.03;1713111;83;20221;-75
2021/04/12 00:04:00;;;;;;;;;;;;;;;5.02;50.14;101052.55;1721405;82;22862;-74
2021/04/12 00:06:40;;;;;;;;;;;;;;;4.98;50.50;101054.05;1718157;83;20229;-75
2021/04/12 00:09:15;;;;;;;;;;;;;;;4.97;50.45;101056.29;1699082;82;20216;-74
2021/04/12 00:12:06;;;;;;;;;;;;;;;4.96;50.61;101047.59;1733715;82;20217;-75
2021/04/12 00:14:36;;;;;;;;;;;;;;;4.94;50.73;101042.89;1709387;83;20217;-75
2021/04/12 00:17:06;;;;;;;;;;;;;;;4.93;50.68;101040.34;1699529;83;22168;-75
2021/04/12 00:19:51;;;;;;;;;;;;;;;4.94;50.54;101045.50;1715645;83;20388;-74
2021/04/12 00:22:28;;;;;;;;;;;;;;;4.95;50.63;101041.97;1721602;82;20217;-74
2021/04/12 00:25:04;;;;;;;;;;;;;;;4.94;50.79;101040.27;1710338;83;20220;-74
2021/04/12 00:27:52;;;;;;;;;;;;;;;4.92;50.85;101039.92;1705923;83;20227;-73
2021/04/12 00:30:32;;;;;;;;;;;;;;;4.96;51.02;101034.50;1867890;74;20199;-74
2021/04/12 00:33:18;;;;;;;;;;;;;;;4.92;51.04;101035.53;1808727;77;20295;-75
2021/04/12 00:36:05;;;;;;;;;;;;;;;4.92;51.17;101038.62;1839284;77;21284;-75
2021/04/12 00:39:03;;;;;;;;;;;;;;;4.90;51.52;101036.07;1836599;76;20373;-75
2021/04/12 00:41:50;;;;;;;;;;;;;;;4.85;51.54;101035.45;1840768;76;20238;-76
2021/04/12 00:44:43;;;;;;;;;;;;;;;4.84;51.69;101033.30;1845852;76;20444;-75
2021/04/12 00:47:35;;;;;;;;;;;;;;;4.82;51.82;101028.56;1832005;77;20220;-78
2021/04/12 00:50:23;;;;;;;;;;;;;;;4.81;51.97;101028.63;1815130;77;23060;-77
2021/04/12 00:53:29;;;;;;;;;;;;;;;4.80;51.94;101017.78;1828008;76;21200;-75
2021/04/12 00:56:13;;;;;;;;;;;;;;;4.82;52.04;101010.70;1832173;76;20259;-75
2021/04/12 00:58:48;;;;;;;;;;;;;;;4.83;52.20;101000.66;1841720;76;20216;-75
2021/04/12 01:01:25;;;;;;;;;;;;;;;4.80;52.38;101004.70;1817698;77;20505;-75
2021/04/12 01:04:23;;;;;;;;;;;;;;;4.78;52.29;100994.77;1808475;76;21885;-76
2021/04/12 01:07:02;;;;;;;;;;;;;;;4.77;52.20;100988.68;1829108;76;20487;-76
2021/04/12 01:09:54;;;;;;;;;;;;;;;4.81;52.22;100994.15;1836420;76;20221;-76
2021/04/12 01:12:42;;;;;;;;;;;;;;;4.80;52.12;100992.45;1819274;76;20228;-75
2021/04/12 01:15:30;;;;;;;;;;;;;;;4.83;52.10;100986.25;1830623;77;20256;-76
2021/04/12 01:18:28;;;;;;;;;;;;;;;4.82;52.46;100988.45;1819486;77;22026;-75
2021/04/12 01:21:20;;;;;;;;;;;;;;;4.79;52.51;100981.60;1828533;77;20286;-76
2021/04/12 01:24:00;;;;;;;;;;;;;;;4.77;52.64;100982.59;1829559;77;20216;-75
2021/04/12 01:26:54;;;;;;;;;;;;;;;4.72;52.97;100983.25;1831002;76;20304;-76
2021/04/12 01:30:00;;;;;;;;;;;;;;;4.68;53.13;100981.24;1822007;77;20215;-75
2021/04/12 01:32:47;;;;;;;;;;;;;;;4.67;53.19;100980.01;1826142;77;22142;-75
2021/04/12 01:35:32;;;;;;;;;;;;;;;4.65;53.18;100980.09;1793786;77;20383;-74
2021/04/12 01:38:06;;;;;;;;;;;;;;;4.68;53.19;100964.70;1838081;77;20404;-75
2021/04/12 01:40:54;;;;;;;;;;;;;;;4.72;53.19;100955.78;1864807;74;20199;-74
2021/04/12 01:43:29;;;;;;;;;;;;;;;4.68;53.39;100955.54;1789880;77;20220;-81
2021/04/12 01:46:14;;;;;;;;;;;;;;;4.62;53.48;100957.96;1811433;77;22056;-83
2021/04/12 01:48:54;;;;;;;;;;;;;;;4.62;53.45;100951.42;1847072;77;20776;-86
2021/04/12 01:51:54;;;;;;;;;;;;;;;4.65;53.32;100953.08;1826997;76;20224;-81
2021/04/12 01:54:40;;;;;;;;;;;;;;;4.63;53.71;100944.42;1817421;77;21124;-79
2021/04/12 01:57:31;;;;;;;;;;;;;;;4.61;53.71;100944.50;1778098;79;20518;-79
2021/04/12 02:00:22;;;;;;;;;;;;;;;4.62;54.01;100943.58;1813227;77;22353;-77
2021/04/12 02:03:02;;;;;;;;;;;;;;;4.56;54.05;100940.80;1797006;78;21130;-80
2021/04/12 02:05:56;;;;;;;;;;;;;;;4.51;54.27;100947.14;1807580;77;20213;-78
2021/04/12 02:08:30;;;;;;;;;;;;;;;4.47;54.38;100939.90;1813802;77;20271;-78
2021/04/12 02:11:25;;;;;;;;;;;;;;;4.45;54.41;100940.44;1798364;77;20235;-79
2021/04/12 02:14:06;;;;;;;;;;;;;;;4.49;54.32;100932.83;1804316;77;21901;-79
2021/04/12 02:16:55;;;;;;;;;;;;;;;4.53;54.34;100938.30;1798323;79;20254;-79
2021/04/12 02:19:49;;;;;;;;;;;;;;;4.54;54.29;100933.48;1809400;78;20213;-79
2021/04/12 02:22:41;;;;;;;;;;;;;;;4.55;54.25;100931.25;1806789;77;20275;-80
2021/04/12 02:25:58;;;;;;;;;;;;;;;4.58;54.35;100923.25;1816218;78;20228;-78
2021/04/12 02:28:51;;;;;;;;;;;;;;;4.61;54.26;100922.25;1812820;77;21899;-78
2021/04/12 02:31:35;;;;;;;;;;;;;;;4.59;54.41;100922.80;1881124;76;20176;-79
2021/04/12 02:34:06;;;;;;;;;;;;;;;4.51;54.68;100924.44;1828432;77;20206;-81
2021/04/12 02:37:03;;;;;;;;;;;;;;;4.45;54.89;100929.13;1842291;77;22103;-82
2021/04/12 02:39:46;;;;;;;;;;;;;;;4.37;55.14;100929.47;1839811;77;20373;-82
2021/04/12 02:42:25;;;;;;;;;;;;;;;4.31;55.34;100930.58;1838923;77;20202;-81
2021/04/12 02:45:03;;;;;;;;;;;;;;;4.28;55.38;100929.88;1841673;77;20279;-80
2021/04/12 02:47:40;;;;;;;;;;;;;;;4.26;55.46;100927.80;1820416;77;20232;-81
2021/04/12 02:50:23;;;;;;;;;;;;;;;4.20;55.64;100931.97;1825185;77;22989;-81
2021/04/12 02:53:14;;;;;;;;;;;;;;;4.17;55.54;100926.89;1841157;77;20446;-81
2021/04/12 02:56:07;;;;;;;;;;;;;;;4.13;55.75;100930.08;1843422;77;20222;-81
2021/04/12 02:58:56;;;;;;;;;;;;;;;4.09;55.73;100932.91;1832044;77;21211;-81
2021/04/12 03:02:00;;;;;;;;;;;;;;;4.07;55.62;100927.75;1829358;77;20412;-81
2021/04/12 03:04:48;;;;;;;;;;;;;;;4.06;55.77;100926.52;1851864;77;22012;-84
2021/04/12 03:07:36;;;;;;;;;;;;;;;3.97;56.05;100927.30;1834738;77;20412;-84
2021/04/12 03:10:13;;;;;;;;;;;;;;;3.90;56.19;100925.86;1837932;77;20238;-83
2021/04/12 03:13:02;;;;;;;;;;;;;;;3.85;56.26;100924.34;1851352;77;20230;-85
2021/04/12 03:15:50;;;;;;;;;;;;;;;3.86;56.29;100920.81;1848675;77;20480;-83
2021/04/12 03:18:33;;;;;;;;;;;;;;;3.84;56.28;100920.88;1845544;77;23133;-79
2021/04/12 03:21:26;;;;;;;;;;;;;;;3.81;56.34;100923.64;1822715;77;20436;-80
2021/04/12 03:24:25;;;;;;;;;;;;;;;3.83;56.41;100924.41;1831818;77;20229;-80
2021/04/12 03:27:10;;;;;;;;;;;;;;;3.80;56.48;100914.56;1834965;77;20233;-80
2021/04/12 03:29:42;;;;;;;;;;;;;;;3.72;56.86;100912.27;1838798;77;20249;-80
2021/04/12 03:32:29;;;;;;;;;;;;;;;3.63;57.02;100912.20;1835697;77;22104;-81
2021/04/12 03:35:21;;;;;;;;;;;;;;;3.61;57.15;100906.66;1828586;77;20288;-82
2021/04/12 03:38:01;;;;;;;;;;;;;;;3.59;57.28;100908.48;1816908;77;20272;-81
2021/04/12 03:40:32;;;;;;;;;;;;;;;3.58;57.51;100906.33;1842927;77;20277;-82
2021/04/12 03:43:20;;;;;;;;;;;;;;;3.58;57.60;100907.64;1828578;77;20258;-83
2021/04/12 03:46:11;;;;;;;;;;;;;;;3.58;57.90;100905.48;1846115;77;22447;-81
2021/04/12 03:48:59;;;;;;;;;;;;;;;3.61;57.94;100901.43;1824974;77;20700;-82
2021/04/12 03:51:45;;;;;;;;;;;;;;;3.62;58.09;100904.43;1825414;77;20213;-79
2021/04/12 03:54:23;;;;;;;;;;;;;;;3.64;58.08;100910.44;1834210;77;20459;-81
2021/04/12 03:57:00;;;;;;;;;;;;;;;3.66;58.10;100915.13;1835233;77;20217;-81
2021/04/12 03:59:59;;;;;;;;;;;;;;;3.69;58.09;100908.03;1807387;77;21421;-81
2021/04/12 04:02:41;;;;;;;;;;;;;;;3.72;58.19;100918.34;1835810;77;21107;-83
2021/04/12 04:05:12;;;;;;;;;;;;;;;3.73;58.25;100916.12;1816836;77;20249;-76
2021/04/12 04:07:55;;;;;;;;;;;;;;;3.77;58.28;100918.16;1834892;77;21121;-79
2021/04/12 04:10:32;;;;;;;;;;;;;;;3.80;58.34;100913.25;1798837;77;20215;-79
2021/04/12 04:13:10;;;;;;;;;;;;;;;3.81;58.41;100913.64;1819976;77;21857;-76
2021/04/12 04:16:00;;;;;;;;;;;;;;;3.82;58.47;100907.04;1815128;77;20477;-76
2021/04/12 04:18:57;;;;;;;;;;;;;;;3.88;58.54;100902.88;1832284;77;20237;-77
2021/04/12 04:21:55;;;;;;;;;;;;;;;3.93;58.61;100894.36;1825461;77;20572;-73
2021/04/12 04:24:50;;;;;;;;;;;;;;;4.01;58.49;100892.26;1816978;77;20214;-73
2021/04/12 04:27:47;;;;;;;;;;;;;;;4.13;58.66;100890.86;1823889;77;22054;-73
2021/04/12 04:30:30;;;;;;;;;;;;;;;4.21;59.03;100893.14;1825568;77;20244;-73
2021/04/12 04:33:04;;;;;;;;;;;;;;;4.23;59.19;100887.38;1840889;77;20206;-71
2021/04/12 04:36:02;;;;;;;;;;;;;;;4.28;59.32;100882.80;1787658;77;20235;-71
2021/04/12 04:39:06;;;;;;;;;;;;;;;4.37;59.32;100885.47;1840982;77;20242;-70
2021/04/12 04:41:55;;;;;;;;;;;;;;;4.46;58.78;100881.13;1840567;77;21867;-75
2021/04/12 04:44:39;;;;;;;;;;;;;;;4.62;58.32;100879.94;1843245;77;20367;-75
2021/04/12 04:47:19;;;;;;;;;;;;;;;4.70;58.11;100872.58;1851269;77;20201;-72
2021/04/12 04:50:10;;;;;;;;;;;;;;;4.82;57.76;100874.61;1832303;77;21245;-76
2021/04/12 04:53:10;;;;;;;;;;;;;;;4.89;57.51;100874.71;1836419;77;20206;-71
2021/04/12 04:55:58;;;;;;;;;;;;;;;4.99;57.51;100872.50;1824410;77;21788;-71
2021/04/12 04:58:49;;;;;;;;;;;;;;;5.07;57.29;100873.83;1823494;78;21017;-71
2021/04/12 05:01:26;;;;;;;;;;;;;;;5.14;56.96;100877.00;1830731;77;20205;-71
2021/04/12 05:03:57;;;;;;;;;;;;;;;5.22;56.50;100873.55;1850670;77;21047;-70
2021/04/12 05:06:44;;;;;;;;;;;;;;;5.31;56.26;100869.64;1846753;77;20222;-70
2021/04/12 05:09:30;;;;;;;;;;;;;;;5.37;55.96;100864.07;1853084;77;21733;-70
2021/04/12 05:12:10;;;;;;;;;;;;;;;5.45;55.75;100857.99;1849247;77;21294;-70
2021/04/12 05:15:10;;;;;;;;;;;;;;;5.52;55.94;100860.70;1833194;77;20214;-70
2021/04/12 05:17:53;;;;;;;;;;;;;;;5.56;55.63;100859.60;1848640;77;20231;-72
2021/04/12 05:20:42;;;;;;;;;;;;;;;5.64;55.53;100850.89;1845663;77;20215;-71
2021/04/12 05:23:36;;;;;;;;;;;;;;;5.69;55.37;100854.14;1837883;77;21075;-72
2021/04/12 05:26:19;;;;;;;;;;;;;;;5.74;55.25;100861.28;1842385;77;20362;-71
2021/04/12 05:28:56;;;;;;;;;;;;;;;5.79;55.19;100864.99;1788029;77;20264;-71
2021/04/12 05:31:51;;;;;;;;;;;;;;;5.83;54.96;100869.60;1831788;77;20217;-71
2021/04/12 05:34:37;;;;;;;;;;;;;;;5.86;55.18;100874.21;1827500;77;20279;-70
2021/04/12 05:37:39;;;;;;;;;;;;;;;5.88;55.86;100876.28;1845560;77;22053;-71
2021/04/12 05:40:17;;;;;;;;;;;;;;;5.89;56.04;100877.16;1832628;77;20283;-70
2021/04/12 05:42:48;;;;;;;;;;;;;;;5.89;56.80;100878.01;1845108;77;20245;-70
2021/04/12 05:45:34;;;;;;;;;;;;;;;5.89;57.15;100878.47;1848320;77;20221;-70
2021/04/12 05:48:29;;;;;;;;;;;;;;;5.87;57.69;100873.28;1798605;79;20216;-70
2021/04/12 05:51:19;;;;;;;;;;;;;;;5.88;58.31;100874.97;1808080;78;21889;-71
2021/04/12 05:54:27;;;;;;;;;;;;;;;5.87;59.11;100881.61;1791517;79;20276;-71
2021/04/12 05:57:13;;;;;;;;;;;;;;;5.83;60.02;100875.69;1795232;79;20220;-73
2021/04/12 06:00:05;;;;;;;;;;;;;;;5.81;60.91;100881.95;1800631;78;20293;-72
2021/04/12 06:03:05;;;;;;;;;;;;;;;5.73;61.89;100883.64;1786539;79;20215;-70
2021/04/12 06:05:57;;;;;;;;;;;;;;;5.68;62.54;100879.09;1745905;82;21898;-71
2021/04/12 06:08:39;;;;;;;;;;;;;;;5.66;63.10;100881.79;1709747;84;20349;-72
2021/04/12 06:11:27;;;;;;;;;;;;;;;5.66;63.59;100894.89;1762682;80;20235;-70
2021/04/12 06:14:04;;;;;;;;;;;;;;;5.67;64.33;100898.36;1751079;81;20243;-70
2021/04/12 06:16:55;;;;;;;;;;;;;;;5.66;65.55;100896.67;1763096;81;20220;-71
2021/04/12 06:19:52;;;;;;;;;;;;;;;5.63;66.21;100882.42;1774101;80;21898;-71
2021/04/12 06:22:26;;;;;;;;;;;;;;;5.64;66.93;100885.42;1763724;81;21249;-71
2021/04/12 06:25:25;;;;;;;;;;;;;;;5.67;67.76;100873.00;1763718;81;20220;-71
2021/04/12 06:28:06;;;;;;;;;;;;;;;5.67;68.25;100874.31;1770087;80;20246;-71
2021/04/12 06:30:40;;;;;;;;;;;;;;;5.70;68.79;100875.48;1784567;79;20272;-71
2021/04/12 06:33:17;;;;;;;;;;;;;;;5.75;69.21;100876.08;1798938;78;22979;-72
2021/04/12 06:36:04;;;;;;;;;;;;;;;5.82;69.51;100862.67;1793500;79;20382;-68
2021/04/12 06:38:59;;;;;;;;;;;;;;;5.88;69.88;100859.24;1799426;78;20218;-70
2021/04/12 06:41:53;;;;;;;;;;;;;;;5.95;69.70;100852.79;1798607;79;20489;-70
2021/04/12 06:44:51;;;;;;;;;;;;;;;6.00;69.15;100834.22;1727853;83;20406;-70
2021/04/12 06:47:22;;;;;;;;;;;;;;;6.05;69.01;100835.27;1723756;81;23103;-67
2021/04/12 06:50:10;;;;;;;;;;;;;;;6.06;68.59;100829.94;1726058;81;20496;-69
2021/04/12 06:53:10;;;;;;;;;;;;;;;6.05;68.91;100820.37;1747085;81;20214;-68
2021/04/12 06:55:43;;;;;;;;;;;;;;;6.08;69.26;100822.86;1749530;81;20275;-69
2021/04/12 06:58:37;;;;;;;;;;;;;;;6.12;69.45;100834.86;1743809;82;20508;-68
2021/04/12 07:01:45;;;;;;;;;;;;;;;6.17;69.71;100845.94;1746287;81;22146;-71
2021/04/12 07:04:35;;;;;;;;;;;;;;;6.18;69.58;100854.68;1729110;82;20247;-69
2021/04/12 07:07:26;;;;;;;;;;;;;;;6.16;69.47;100854.73;1753876;81;20219;-70
2021/04/12 07:10:24;;;;;;;;;;;;;;;6.17;69.96;100845.94;1751949;81;20320;-69
2021/04/12 07:13:11;;;;;;;;;;;;;;;6.16;70.22;100846.87;1749445;81;20408;-69
2021/04/12 07:16:17;;;;;;;;;;;;;;;6.18;70.38;100845.03;1701924;82;22083;-68
2021/04/12 07:19:16;;;;;;;;;;;;;;;6.17;70.64;100838.06;1750290;81;20228;-71
2021/04/12 07:22:08;;;;;;;;;;;;;;;6.12;70.81;100844.51;1756028;81;20228;-70
2021/04/12 07:25:01;;;;;;;;;;;;;;;6.11;71.14;100847.59;1757713;81;20478;-69
2021/04/12 07:27:51;;;;;;;;;;;;;;;6.15;71.20;100832.06;1757854;81;20256;-71
2021/04/12 07:30:28;;;;;;;;;;;;;;;6.14;71.33;100821.66;1742840;81;22135;-72
2021/04/12 07:32:59;;;;;;;;;;;;;;;6.11;71.43;100806.95;1784516;80;21354;-72
2021/04/12 07:35:52;;;;;;;;;;;;;;;6.11;71.59;100827.92;1788881;80;20285;-73
2021/04/12 07:38:52;;;;;;;;;;;;;;;6.13;71.53;100838.33;1790935;80;20890;-71
2021/04/12 07:41:48;;;;;;;;;;;;;;;6.11;71.60;100837.11;1790318;80;20255;-71
2021/04/12 07:44:32;;;;;;;;;;;;;;;6.12;71.80;100842.73;1788903;80;22097;-70
2021/04/12 07:47:34;;;;;;;;;;;;;;;6.13;71.88;100820.81;1765468;80;20395;-69
2021/04/12 07:50:06;;;;;;;;;;;;;;;6.10;71.67;100831.48;1755949;81;20218;-69
2021/04/12 07:52:52;;;;;;;;;;;;;;;6.12;71.79;100834.86;1766127;80;20551;-70
2021/04/12 07:55:43;;;;;;;;;;;;;;;6.14;71.94;100833.47;1793728;80;20513;-69
2021/04/12 07:58:33;;;;;;;;;;;;;;;6.13;72.11;100819.97;1795244;80;21918;-69
2021/04/12 08:01:20;;;;;;;;;;;;;;;6.10;72.23;100819.68;1786254;80;21284;-69
2021/04/12 08:04:25;;;;;;;;;;;;;;;6.13;72.33;100818.19;1786629;80;20270;-70
2021/04/12 08:07:19;;;;;;;;;;;;;;;6.20;72.28;100826.13;1787716;80;21452;-70
2021/04/12 08:10:16;;;;;;;;;;;;;;;6.29;72.37;100823.47;1792573;80;20210;-72
2021/04/12 08:13:03;;;;;;;;;;;;;;;6.34;72.24;100833.23;1782833;80;22094;-71
2021/04/12 08:15:52;;;;;;;;;;;;;;;6.37;71.98;100826.96;1786913;80;20277;-72
2021/04/12 08:18:57;;;;;;;;;;;;;;;6.39;71.71;100812.00;1793991;80;20411;-72
2021/04/12 08:21:36;;;;;;;;;;;;;;;6.46;71.54;100808.09;1788158;80;20898;-71
2021/04/12 08:24:24;;;;;;;;;;;;;;;6.58;71.67;100799.09;1784160;80;20218;-68
2021/04/12 08:27:12;;;;;;;;;;;;;;;6.72;71.46;100790.42;1791310;80;21986;-73
2021/04/12 08:29:49;;;;;;;;;;;;;;;6.85;71.01;100794.06;1786149;80;21346;-74
2021/04/12 08:32:37;;;;;;;;;;;;;;;7.06;70.88;100789.81;1762028;80;20471;-71
2021/04/12 08:35:20;;;;;;;;;;;;;;;7.27;70.59;100789.87;1781404;79;21216;-69
2021/04/12 08:38:19;;;;;;;;;;;;;;;7.48;70.35;100787.73;1743511;82;20319;-71
2021/04/12 08:41:08;;;;;;;;;;;;;;;7.62;69.30;100788.21;1773769;80;22887;-76
2021/04/12 08:44:05;;;;;;;;;;;;;;;7.72;68.59;100774.44;1781455;80;20436;-72
2021/04/12 08:46:53;;;;;;;;;;;;;;;7.90;68.60;100776.85;1774534;80;20215;-72
2021/04/12 08:50:01;;;;;;;;;;;;;;;8.18;68.61;100779.45;1774249;80;20382;-73
2021/04/12 08:52:53;;;;;;;;;;;;;;;8.41;67.90;100778.05;1780168;80;20497;-72
2021/04/12 08:55:53;;;;;;;;;;;;;;;8.54;66.55;100774.15;1776523;80;21996;-69
2021/04/12 08:58:29;;;;;;;;;;;;;;;8.54;65.78;100767.09;1782143;80;21333;-69
2021/04/12 09:01:22;;;;;;;;;;;;;;;8.46;65.24;100760.62;1780221;80;20227;-71
2021/04/12 09:04:20;;;;;;;;;;;;;;;8.43;65.06;100757.73;1781007;80;20317;-70
2021/04/12 09:07:15;;;;;;;;;;;;;;;8.54;65.12;100755.72;1766233;80;20214;-71
2021/04/12 09:10:13;;;;;;;;;;;;;;;8.63;65.07;100753.80;1781848;80;21390;-70
2021/04/12 09:13:04;;;;;;;;;;;;;;;8.71;64.63;100763.38;1782276;80;20314;-72
2021/04/12 09:15:53;;;;;;;;;;;;;;;8.70;64.39;100759.52;1743884;80;20829;-73
2021/04/12 09:18:43;;;;;;;;;;;;;;;8.71;64.07;100755.47;1764613;80;21350;-74
2021/04/12 09:21:40;;;;;;;;;;;;;;;8.70;63.98;100752.47;1782445;80;20215;-72
2021/04/12 09:24:30;;;;;;;;;;;;;;;8.80;63.89;100750.08;1781942;80;20557;-70
2021/04/12 09:27:21;;;;;;;;;;;;;;;8.85;63.74;100750.13;1746115;80;20312;-71
2021/04/12 09:29:59;;;;;;;;;;;;;;;8.91;63.81;100746.73;1776801;80;20289;-72
2021/04/12 09:32:52;;;;;;;;;;;;;;;8.99;63.62;100754.49;1751158;81;20535;-71
2021/04/12 09:35:42;;;;;;;;;;;;;;;9.04;63.56;100747.11;1680260;84;20235;-72
2021/04/12 09:38:20;;;;;;;;;;;;;;;9.06;63.00;100749.16;1754619;80;22136;-73
2021/04/12 09:40:52;;;;;;;;;;;;;;;9.02;62.68;100754.28;1751941;81;21262;-70
2021/04/12 09:43:39;;;;;;;;;;;;;;;8.96;62.71;100755.16;1781040;80;20214;-69
2021/04/12 09:46:13;;;;;;;;;;;;;;;8.97;62.98;100748.94;1775536;80;20912;-71
2021/04/12 09:48:50;;;;;;;;;;;;;;;8.93;62.89;100737.77;1788551;80;20428;-69
2021/04/12 09:51:21;;;;;;;;;;;;;;;8.94;63.04;100745.20;1767008;80;22067;-69
2021/04/12 09:53:57;;;;;;;;;;;;;;;8.95;63.20;100735.87;1774992;80;20230;-71
2021/04/12 09:56:33;;;;;;;;;;;;;;;9.01;63.25;100736.79;1782950;80;20230;-73
2021/04/12 09:59:31;;;;;;;;;;;;;;;9.09;63.37;100729.69;1778467;80;20313;-74
2021/04/12 10:02:25;;;;;;;;;;;;;;;9.10;62.79;100732.22;1755474;80;20240;-72
2021/04/12 10:05:07;;;;;;;;;;;;;;;9.07;62.77;100731.11;1786557;80;22056;-71
2021/04/12 10:07:50;;;;;;;;;;;;;;;9.14;62.91;100728.41;1755817;80;20485;-70
2021/04/12 10:10:37;;;;;;;;;;;;;;;9.18;62.58;100728.59;1801386;79;20276;-72
2021/04/12 10:13:15;;;;;;;;;;;;;;;9.17;62.54;100729.55;1785778;79;20466;-74
2021/04/12 10:16:02;;;;;;;;;;;;;;;9.21;62.56;100729.33;1788351;79;20276;-72
2021/04/12 10:18:57;;;;;;;;;;;;;;;9.22;62.36;100737.12;1770780;79;22075;-73
2021/04/12 10:21:37;;;;;;;;;;;;;;;9.24;62.43;100726.47;1776722;80;20334;-72
2021/04/12 10:24:08;;;;;;;;;;;;;;;9.29;62.34;100734.92;1772454;81;20406;-71
2021/04/12 10:26:40;;;;;;;;;;;;;;;9.25;61.90;100733.42;1784704;80;20532;-71
2021/04/12 10:29:16;;;;;;;;;;;;;;;9.18;61.77;100736.50;1795207;80;20210;-71
2021/04/12 10:31:48;;;;;;;;;;;;;;;9.11;61.98;100733.06;1769337;80;22877;-72
2021/04/12 10:34:19;;;;;;;;;;;;;;;9.11;62.09;100735.70;1780508;80;20218;-73
2021/04/12 10:37:05;;;;;;;;;;;;;;;9.15;62.16;100728.78;1788697;80;20258;-72
2021/04/12 10:39:53;;;;;;;;;;;;;;;9.23;62.31;100734.02;1755075;81;20326;-72
2021/04/12 10:42:51;;;;;;;;;;;;;;;9.22;61.95;100733.65;1791681;80;20214;-71
2021/04/12 10:45:31;;;;;;;;;;;;;;;9.17;62.04;100730.86;1778725;80;21898;-71
2021/04/12 10:48:02;;;;;;;;;;;;;;;9.13;62.03;100726.73;1790813;80;20449;-71
2021/04/12 10:50:53;;;;;;;;;;;;;;;9.11;62.29;100728.63;1800844;79;20549;-71
2021/04/12 10:53:43;;;;;;;;;;;;;;;9.12;62.23;100731.63;1797668;79;20917;-72
2021/04/12 10:56:38;;;;;;;;;;;;;;;9.16;62.37;100727.83;1784323;80;20222;-72
2021/04/12 10:59:34;;;;;;;;;;;;;;;9.17;62.21;100730.86;1805675;79;22878;-71
2021/04/12 11:02:23;;;;;;;;;;;;;;;9.20;62.21;100727.64;1807093;79;21242;-70
2021/04/12 11:04:57;;;;;;;;;;;;;;;9.20;62.23;100727.64;1789385;79;20222;-70
2021/04/12 11:07:48;;;;;;;;;;;;;;;9.21;62.36;100726.22;1771577;80;20313;-71
2021/04/12 11:10:20;;;;;;;;;;;;;;;9.27;62.56;100731.08;1774356;81;20316;-72
2021/04/12 11:13:06;;;;;;;;;;;;;;;9.32;62.36;100731.59;1782963;80;21891;-71
2021/04/12 11:15:49;;;;;;;;;;;;;;;9.35;62.23;100722.63;1770453;80;20365;-72
2021/04/12 11:18:21;;;;;;;;;;;;;;;9.31;62.16;100716.73;1760044;80;20244;-72
2021/04/12 11:20:55;;;;;;;;;;;;;;;9.31;62.30;100722.48;1760283;80;20265;-71
2021/04/12 11:23:35;;;;;;;;;;;;;;;9.31;62.26;100725.95;1795231;80;20508;-71
2021/04/12 11:26:18;;;;;;;;;;;;;;;9.28;62.23;100718.74;1795346;80;22108;-68
2021/04/12 11:28:55;;;;;;;;;;;;;;;9.25;62.18;100717.61;1766640;80;20378;-70
2021/04/12 11:31:43;;;;;;;;;;;;;;;9.21;62.34;100723.58;1756160;80;20206;-72
2021/04/12 11:34:27;;;;;;;;;;;;;;;9.27;62.42;100718.37;1911150;74;20246;-71
2021/04/12 11:37:13;;;;;;;;;;;;;;;9.29;62.49;100711.20;1873152;75;20206;-72
2021/04/12 11:39:42;;;;;;;;;;;;;;;9.34;62.52;100710.39;1836729;75;23011;-71
2021/04/12 11:42:14;;;;;;;;;;;;;;;9.34;62.35;100704.64;1879712;75;20594;-72
2021/04/12 11:45:07;;;;;;;;;;;;;;;9.36;62.35;100705.85;1861062;77;20213;-72
2021/04/12 11:47:50;;;;;;;;;;;;;;;9.37;62.41;100703.61;1861249;77;20241;-71
2021/04/12 11:50:25;;;;;;;;;;;;;;;9.42;62.39;100710.23;1860770;77;20221;-71
2021/04/12 11:53:15;;;;;;;;;;;;;;;9.48;62.47;100708.98;1835082;75;22160;-72
2021/04/12 11:55:47;;;;;;;;;;;;;;;9.54;62.36;100710.33;1829839;78;20383;-72
2021/04/12 11:58:29;;;;;;;;;;;;;;;9.55;62.20;100712.02;1840741;75;20360;-72
2021/04/12 12:01:00;;;;;;;;;;;;;;;9.56;62.03;100712.41;1837357;75;20212;-72
2021/04/12 12:03:43;;;;;;;;;;;;;;;9.55;62.12;100712.02;1854153;75;20399;-73
2021/04/12 12:06:31;;;;;;;;;;;;;;;9.59;62.15;100706.91;1826959;75;22063;-73
2021/04/12 12:09:15;;;;;;;;;;;;;;;9.64;62.37;100709.58;1823983;77;20373;-72
2021/04/12 12:11:46;;;;;;;;;;;;;;;9.71;62.27;100706.05;1830658;75;20232;-71
2021/04/12 12:14:21;;;;;;;;;;;;;;;9.69;62.03;100704.00;1845785;75;20249;-71
2021/04/12 12:16:48;;;;;;;;;;;;;;;9.70;62.11;100703.88;1843466;77;20210;-71
2021/04/12 12:19:47;;;;;;;;;;;;;;;9.63;61.78;100698.66;1845914;75;22567;-71
2021/04/12 12:22:21;;;;;;;;;;;;;;;9.61;62.10;100695.77;1840595;75;20264;-73
2021/04/12 12:25:08;;;;;;;;;;;;;;;9.67;62.34;100704.11;1863716;75;20209;-72
2021/04/12 12:27:38;;;;;;;;;;;;;;;9.71;62.28;100703.41;1854638;77;20249;-70
2021/04/12 12:30:21;;;;;;;;;;;;;;;9.73;62.25;100706.77;1829192;77;20271;-73
2021/04/12 12:32:52;;;;;;;;;;;;;;;9.80;62.31;100706.71;1803407;77;21955;-74
2021/04/12 12:35:29;;;;;;;;;;;;;;;9.85;62.19;100705.92;1796360;77;20275;-69
2021/04/12 12:38:12;;;;;;;;;;;;;;;9.88;62.19;100705.70;1772246;79;20364;-70
2021/04/12 12:40:55;;;;;;;;;;;;;;;9.93;62.11;100710.63;1769521;78;20271;-69
2021/04/12 12:43:34;;;;;;;;;;;;;;;9.94;62.02;100712.31;1794431;78;20953;-69
2021/04/12 12:46:28;;;;;;;;;;;;;;;9.95;61.98;100711.39;1748741;80;22159;-69
2021/04/12 12:49:18;;;;;;;;;;;;;;;9.95;61.99;100711.39;1774677;78;20391;-68
2021/04/12 12:51:51;;;;;;;;;;;;;;;9.90;62.01;100705.58;1788433;79;20222;-68
2021/04/12 12:54:25;;;;;;;;;;;;;;;9.84;62.21;100706.01;1778924;78;20513;-69
2021/04/12 12:56:53;;;;;;;;;;;;;;;9.88;62.46;100706.17;1789518;78;20396;-70
2021/04/12 12:59:27;;;;;;;;;;;;;;;9.90;62.45;100705.58;1754483;81;22076;-67
2021/04/12 13:01:55;;;;;;;;;;;;;;;9.93;62.60;100710.16;1776603;78;20390;-68
2021/04/12 13:04:26;;;;;;;;;;;;;;;10.03;62.53;100707.70;1778768;78;20255;-69
2021/04/12 13:06:56;;;;;;;;;;;;;;;10.04;62.50;100708.94;1774085;78;21122;-72
2021/04/12 13:09:34;;;;;;;;;;;;;;;10.06;62.27;100714.58;1779869;79;20242;-70
2021/04/12 13:12:10;;;;;;;;;;;;;;;10.00;62.31;100710.57;1789797;78;22069;-71
2021/04/12 13:14:47;;;;;;;;;;;;;;;10.04;62.50;100707.63;1740100;80;20220;-70
2021/04/12 13:17:35;;;;;;;;;;;;;;;10.13;62.64;100706.08;1768794;79;20216;-72
2021/04/12 13:20:23;;;;;;;;;;;;;;;10.21;62.50;100709.02;1767927;80;20248;-68
2021/04/12 13:22:54;;;;;;;;;;;;;;;10.26;62.30;100707.41;1785521;79;20276;-79
2021/04/12 13:25:39;;;;;;;;;;;;;;;10.23;62.21;100708.48;1776342;79;22509;-72
2021/04/12 13:28:29;;;;;;;;;;;;;;;10.24;62.26;100711.48;1776502;79;20823;-73
2021/04/12 13:31:02;;;;;;;;;;;;;;;10.28;62.28;100714.26;1775333;79;20229;-75
2021/04/12 13:33:36;;;;;;;;;;;;;;;10.31;62.16;100711.39;1784406;80;20277;-72
2021/04/12 13:36:23;;;;;;;;;;;;;;;10.33;62.09;100709.98;1787179;80;20210;-71
2021/04/12 13:38:53;;;;;;;;;;;;;;;10.37;62.08;100709.27;1787245;80;21293;-72
2021/04/12 13:41:26;;;;;;;;;;;;;;;10.41;62.03;100717.31;1780556;79;20775;-76
2021/04/12 13:43:56;;;;;;;;;;;;;;;10.37;61.73;100715.39;1756244;80;20233;-75
2021/04/12 13:46:26;;;;;;;;;;;;;;;10.36;61.90;100713.70;1777165;79;20683;-74
2021/04/12 13:49:07;;;;;;;;;;;;;;;10.40;61.86;100712.52;1779903;79;20500;-73
2021/04/12 13:51:41;;;;;;;;;;;;;;;10.45;61.79;100709.08;1785558;80;22016;-73
2021/04/12 13:54:30;;;;;;;;;;;;;;;10.44;61.56;100712.67;1782810;79;20313;-74
2021/04/12 13:57:01;;;;;;;;;;;;;;;10.46;61.65;100711.23;1760676;79;20253;-74
2021/04/12 13:59:30;;;;;;;;;;;;;;;10.51;61.69;100717.00;1769905;79;20237;-73
2021/04/12 14:02:06;;;;;;;;;;;;;;;10.55;61.61;100714.52;1765799;80;20244;-73
2021/04/12 14:04:38;;;;;;;;;;;;;;;10.56;61.50;100713.08;1764529;80;23384;-72
2021/04/12 14:07:11;;;;;;;;;;;;;;;10.51;61.18;100717.00;1767248;80;20344;-73
2021/04/12 14:10:00;;;;;;;;;;;;;;;10.48;61.33;100715.44;1763798;80;20484;-70
2021/04/12 14:12:30;;;;;;;;;;;;;;;10.50;61.34;100723.25;1724122;80;20213;-74
2021/04/12 14:15:06;;;;;;;;;;;;;;;10.45;61.23;100718.80;1768313;79;20302;-73
2021/04/12 14:17:51;;;;;;;;;;;;;;;10.40;61.18;100719.11;1761335;80;21289;-71